Terminal Aerodrome Forecast
Issued by NWS Grand Forks, ND

Home | Current Version | Previous Version | Text Only | Print | Product List | Glossary On
Versions: 1 2 3 4 5 6 7 8 9 10 11 12 13 14 15 16 17 18 19 20 21 22 23 24 25 26
297
FTUS43 KFGF 090303 AAC
TAFFAR
TAF AMD
KFAR 090303Z 0903/0924 35015KT P6SM FEW030
      TEMPO 0903/0904 34018G25KT
     FM090900 34010KT P6SM BKN250=

USA.gov is the U.S. government's official web portal to all federal, state and local government web resources and services.